createdAt,value
2023-03-28T00:01:12.284Z,99054.13
2023-03-28T00:03:41.202Z,99053.31
2023-03-28T00:06:13.732Z,99045.41
2023-03-28T00:08:42.028Z,99042.31
2023-03-28T00:11:19.915Z,99045.13
2023-03-28T00:14:01.293Z,99053.72
2023-03-28T00:16:35.585Z,99053.44
2023-03-28T00:19:10.303Z,99052.94
2023-03-28T00:21:47.266Z,99055.75
2023-03-28T00:24:19.053Z,99054.44
2023-03-28T00:26:49.489Z,99055.81
2023-03-28T00:29:21.493Z,99059.59
2023-03-28T00:31:50.873Z,99054.38
2023-03-28T00:34:18.916Z,99058.03
2023-03-28T00:36:46.079Z,99059.88
2023-03-28T00:39:14.346Z,99065.53
2023-03-28T00:41:44.427Z,99067.72
2023-03-28T00:44:50.079Z,99071.50
2023-03-28T00:48:15.165Z,99071.50
2023-03-28T00:50:48.795Z,99069.41
2023-03-28T00:53:25.661Z,99070.56
2023-03-28T00:56:04.369Z,99062.16
2023-03-28T00:58:39.397Z,99069.84
2023-03-28T01:01:11.114Z,99066.25
2023-03-28T01:03:46.475Z,99060.50
2023-03-28T01:06:16.515Z,99057.72
2023-03-28T01:08:47.222Z,99061.97
2023-03-28T01:11:17.137Z,99057.72
2023-03-28T01:13:52.160Z,99057.03
2023-03-28T01:16:30.836Z,99065.59
2023-03-28T01:19:02.828Z,99068.56
2023-03-28T01:21:58.347Z,99065.28
2023-03-28T01:25:05.491Z,99058.72
2023-03-28T01:27:52.422Z,99055.44
2023-03-28T01:31:16.697Z,99055.44
2023-03-28T01:34:54.476Z,99053.78
2023-03-28T01:37:28.216Z,99053.50
2023-03-28T01:40:20.027Z,99062.88
2023-03-28T01:43:41.469Z,99067.97
2023-03-28T01:46:23.641Z,99065.03
2023-03-28T01:49:09.438Z,99068.97
2023-03-28T01:52:33.138Z,99075.25
2023-03-28T01:55:21.448Z,99070.63
2023-03-28T01:58:11.298Z,99072.28
2023-03-28T02:00:56.185Z,99062.94
2023-03-28T02:03:33.286Z,99060.13
2023-03-28T02:06:15.084Z,99061.44
2023-03-28T02:08:46.547Z,99070.31
2023-03-28T02:11:19.681Z,99065.72
2023-03-28T02:14:04.668Z,99072.28
2023-03-28T02:17:04.833Z,99074.44
2023-03-28T02:20:09.187Z,99063.44
2023-03-28T02:23:06.365Z,99062.91
2023-03-28T02:25:57.291Z,99060.47
2023-03-28T02:28:56.884Z,99068.84
2023-03-28T02:31:46.867Z,99058.84
2023-03-28T02:34:14.501Z,99053.91
2023-03-28T02:37:12.300Z,99062.44
2023-03-28T02:40:18.383Z,99052.75
2023-03-28T02:43:28.842Z,99061.28
2023-03-28T02:46:07.934Z,99062.44
2023-03-28T02:49:27.987Z,99055.22
2023-03-28T02:52:21.412Z,99057.19
2023-03-28T02:55:05.506Z,99053.25
2023-03-28T02:58:21.282Z,99057.53
2023-03-28T03:00:50.259Z,99053.41
2023-03-28T03:03:18.221Z,99050.78
2023-03-28T03:05:46.039Z,99058.50
2023-03-28T03:08:13.883Z,99061.44
2023-03-28T03:10:42.105Z,99054.88
2023-03-28T03:13:09.207Z,99052.25
2023-03-28T03:15:36.956Z,99065.41
2023-03-28T03:18:20.551Z,99056.19
2023-03-28T03:20:50.859Z,99049.31
2023-03-28T03:23:18.323Z,99053.75
2023-03-28T03:25:46.443Z,99051.28
2023-03-28T03:28:21.655Z,99050.63
2023-03-28T03:30:53.125Z,99045.69
2023-03-28T03:33:38.642Z,99047.84
2023-03-28T03:36:10.107Z,99048.66
2023-03-28T03:38:37.419Z,99048.66
2023-03-28T03:41:05.487Z,99046.19
2023-03-28T03:43:34.353Z,99047.03
2023-03-28T03:46:02.603Z,99036.16
2023-03-28T03:48:30.334Z,99048.00
2023-03-28T03:50:59.591Z,99039.13
2023-03-28T03:53:26.811Z,99038.78
2023-03-28T03:56:04.438Z,99042.44
2023-03-28T03:58:50.473Z,99046.03
2023-03-28T04:01:18.865Z,99044.06
2023-03-28T04:03:48.272Z,99045.53
2023-03-28T04:06:24.558Z,99050.44
2023-03-28T04:08:52.277Z,99047.03
2023-03-28T04:11:35.311Z,99047.34
2023-03-28T04:14:02.965Z,99054.25
2023-03-28T04:16:41.129Z,99050.31
2023-03-28T04:19:13.862Z,99057.53
2023-03-28T04:21:43.939Z,99049.97
2023-03-28T04:24:15.738Z,99042.44
2023-03-28T04:26:56.059Z,99046.03
2023-03-28T04:29:33.444Z,99050.31
2023-03-28T04:32:29.946Z,99043.38
2023-03-28T04:35:08.209Z,99045.03
2023-03-28T04:37:37.875Z,99044.88
2023-03-28T04:40:10.911Z,99045.38
2023-03-28T04:42:57.350Z,99046.53
2023-03-28T04:45:30.063Z,99040.28
2023-03-28T04:48:03.108Z,99044.88
2023-03-28T04:50:30.586Z,99043.09
2023-03-28T04:52:58.186Z,99042.72
2023-03-28T04:55:25.699Z,99044.69
2023-03-28T04:57:53.551Z,99043.38
2023-03-28T05:00:22.763Z,99047.47
2023-03-28T05:03:13.217Z,99041.75
2023-03-28T05:05:57.153Z,99045.34
2023-03-28T05:08:28.521Z,99050.28
2023-03-28T05:10:56.509Z,99047.97
2023-03-28T05:13:26.012Z,99062.09
2023-03-28T05:16:08.012Z,99065.72
2023-03-28T05:18:58.984Z,99056.84
2023-03-28T05:21:46.826Z,99049.28
2023-03-28T05:24:14.564Z,99048.94
2023-03-28T05:26:42.252Z,99046.13
2023-03-28T05:29:13.253Z,99037.44
2023-03-28T05:31:46.278Z,99038.09
2023-03-28T05:34:29.702Z,99041.06
2023-03-28T05:36:58.270Z,99048.63
2023-03-28T05:39:29.497Z,99053.69
2023-03-28T05:42:05.850Z,99052.38
2023-03-28T05:44:37.029Z,99053.69
2023-03-28T05:47:30.727Z,99050.06
2023-03-28T05:49:59.391Z,99053.34
2023-03-28T05:52:27.092Z,99052.19
2023-03-28T05:54:56.221Z,99046.91
2023-03-28T05:57:23.865Z,99060.75
2023-03-28T05:59:52.882Z,99053.50
2023-03-28T06:02:24.484Z,99051.53
2023-03-28T06:04:58.017Z,99061.38
2023-03-28T06:07:39.372Z,99056.59
2023-03-28T06:10:13.400Z,99059.72
2023-03-28T06:12:45.512Z,99061.34
2023-03-28T06:15:13.305Z,99061.97
2023-03-28T06:17:45.028Z,99063.97
2023-03-28T06:20:13.419Z,99071.53
2023-03-28T06:22:40.869Z,99069.28
2023-03-28T06:25:11.679Z,99078.34
2023-03-28T06:27:39.010Z,99079.16
2023-03-28T06:30:08.058Z,99087.88
2023-03-28T06:32:46.256Z,99087.69
2023-03-28T06:35:15.998Z,99091.94
2023-03-28T06:37:43.182Z,99098.84
2023-03-28T06:40:11.817Z,99089.69
2023-03-28T06:42:39.850Z,99104.44
2023-03-28T06:45:36.839Z,99101.16
2023-03-28T06:48:08.317Z,99096.88
2023-03-28T06:51:09.258Z,99105.91
2023-03-28T06:53:37.841Z,99107.72
2023-03-28T06:56:06.910Z,99107.84
2023-03-28T06:58:34.348Z,99108.03
2023-03-28T07:01:08.291Z,99110.47
2023-03-28T07:03:46.417Z,99105.66
2023-03-28T07:06:19.965Z,99106.03
2023-03-28T07:08:47.550Z,99109.81
2023-03-28T07:11:27.086Z,99113.94
2023-03-28T07:13:54.572Z,99113.88
2023-03-28T07:16:22.456Z,99113.53
2023-03-28T07:18:50.062Z,99113.53
2023-03-28T07:21:25.738Z,99122.41
2023-03-28T07:23:56.962Z,99129.34
2023-03-28T07:26:29.158Z,99123.25
2023-03-28T07:28:57.328Z,99140.19
2023-03-28T07:31:25.862Z,99127.03
2023-03-28T07:33:58.378Z,99138.91
2023-03-28T07:36:28.604Z,99142.19
2023-03-28T07:39:03.603Z,99145.47
2023-03-28T07:41:31.389Z,99153.00
2023-03-28T07:43:59.930Z,99146.38
2023-03-28T07:46:28.676Z,99152.16
2023-03-28T07:48:56.964Z,99146.06
2023-03-28T07:51:25.366Z,99148.38
2023-03-28T07:53:52.661Z,99151.31
2023-03-28T07:56:20.703Z,99161.84
2023-03-28T07:58:58.793Z,99159.88
2023-03-28T08:01:27.305Z,99168.09
2023-03-28T08:04:01.123Z,99172.06
2023-03-28T08:06:41.109Z,99174.00
2023-03-28T08:09:16.151Z,99173.53
2023-03-28T08:11:48.974Z,99189.66
2023-03-28T08:14:18.766Z,99189.47
2023-03-28T08:16:46.996Z,99190.44
2023-03-28T08:19:14.703Z,99195.03
2023-03-28T08:22:02.861Z,99197.63
2023-03-28T08:24:36.496Z,99198.44
2023-03-28T08:27:21.546Z,99206.03
2023-03-28T08:29:52.556Z,99209.50
2023-03-28T08:32:20.420Z,99213.78
2023-03-28T08:34:47.976Z,99220.66
2023-03-28T08:37:19.166Z,99231.22
2023-03-28T08:39:48.984Z,99219.31
2023-03-28T08:42:29.509Z,99235.78
2023-03-28T08:45:38.338Z,99222.97
2023-03-28T08:48:31.950Z,99247.69
2023-03-28T08:51:12.071Z,99252.97
2023-03-28T08:53:46.456Z,99253.63
2023-03-28T08:56:16.648Z,99253.94
2023-03-28T08:59:11.434Z,99257.53
2023-03-28T09:01:45.464Z,99258.06
2023-03-28T09:04:28.775Z,99255.22
2023-03-28T09:07:37.108Z,99255.63
2023-03-28T09:10:44.891Z,99265.00
2023-03-28T09:13:34.851Z,99277.91
2023-03-28T09:16:35.480Z,99293.75
2023-03-28T09:19:50.443Z,99306.94
2023-03-28T09:22:47.028Z,99314.84
2023-03-28T09:25:40.500Z,99317.84
2023-03-28T09:28:27.518Z,99326.06
2023-03-28T09:30:59.360Z,99325.03
2023-03-28T09:33:59.055Z,99335.75
2023-03-28T09:36:49.017Z,99328.97
2023-03-28T09:39:36.823Z,99333.91
2023-03-28T09:42:15.184Z,99335.19
2023-03-28T09:45:05.523Z,99329.03
2023-03-28T09:47:51.575Z,99343.84
2023-03-28T09:50:22.475Z,99330.13
2023-03-28T09:52:58.892Z,99334.03
2023-03-28T09:55:31.066Z,99338.06
2023-03-28T09:58:12.061Z,99337.78
2023-03-28T10:01:32.950Z,99331.47
2023-03-28T10:04:28.877Z,99337.75
2023-03-28T10:07:14.280Z,99345.97
2023-03-28T10:09:54.431Z,99344.50
2023-03-28T10:12:34.915Z,99349.28
2023-03-28T10:15:04.593Z,99343.66
2023-03-28T10:17:53.034Z,99337.69
2023-03-28T10:20:26.519Z,99337.00
2023-03-28T10:22:58.661Z,99344.50
2023-03-28T10:25:41.010Z,99346.63
2023-03-28T10:28:21.388Z,99342.72
2023-03-28T10:30:56.294Z,99352.47
2023-03-28T10:33:37.167Z,99348.31
2023-03-28T10:36:44.530Z,99345.78
2023-03-28T10:39:32.540Z,99347.09
2023-03-28T10:42:18.769Z,99350.28
2023-03-28T10:45:03.086Z,99361.75
2023-03-28T10:47:34.981Z,99357.53
2023-03-28T10:50:29.162Z,99370.50
2023-03-28T10:53:32.248Z,99370.59
2023-03-28T10:56:11.984Z,99360.94
2023-03-28T10:59:07.488Z,99368.25
2023-03-28T11:02:07.347Z,99357.72
2023-03-28T11:04:59.086Z,99356.41
2023-03-28T11:07:45.683Z,99367.00
2023-03-28T11:11:15.315Z,99371.88
2023-03-28T11:14:23.718Z,99370.69
2023-03-28T11:17:19.302Z,99363.13
2023-03-28T11:20:25.796Z,99381.50
2023-03-28T11:23:43.264Z,99363.88
2023-03-28T11:27:19.573Z,99371.63
2023-03-28T11:30:21.724Z,99376.50
2023-03-28T11:33:26.117Z,99378.13
2023-03-28T11:36:13.569Z,99376.31
2023-03-28T11:38:47.301Z,99376.59
2023-03-28T11:41:24.413Z,99381.38
2023-03-28T11:44:21.705Z,99375.41
2023-03-28T11:47:12.462Z,99390.13
2023-03-28T11:49:54.252Z,99387.00
2023-03-28T11:53:10.766Z,99382.28
2023-03-28T11:56:15.811Z,99379.44
2023-03-28T11:59:30.608Z,99370.44
2023-03-28T12:02:31.078Z,99372.22
2023-03-28T12:05:26.803Z,99366.91
2023-03-28T12:08:33.841Z,99372.34
2023-03-28T12:11:15.296Z,99371.38
2023-03-28T12:14:12.439Z,99378.13
2023-03-28T12:16:51.393Z,99381.00
2023-03-28T12:19:40.030Z,99375.06
2023-03-28T12:22:50.618Z,99383.00
2023-03-28T12:25:37.762Z,99386.31
2023-03-28T12:28:38.899Z,99387.13
2023-03-28T12:31:26.881Z,99388.34
2023-03-28T12:34:49.385Z,99385.50
2023-03-28T12:37:38.754Z,99390.59
2023-03-28T12:40:42.676Z,99381.50
2023-03-28T12:43:16.537Z,99372.22
2023-03-28T12:45:53.129Z,99383.31
2023-03-28T12:48:42.420Z,99384.19
2023-03-28T12:51:36.854Z,99391.19
2023-03-28T12:54:17.574Z,99411.03
2023-03-28T12:57:02.590Z,99434.00
2023-03-28T12:59:41.240Z,99450.13
2023-03-28T13:02:49.787Z,99476.03
2023-03-28T13:05:58.617Z,99484.00
2023-03-28T13:09:23.384Z,99488.38
2023-03-28T13:12:13.037Z,99493.50
2023-03-28T13:14:42.765Z,99491.97
2023-03-28T13:17:29.755Z,99491.41
2023-03-28T13:20:14.915Z,99487.94
2023-03-28T13:22:50.274Z,99484.03
2023-03-28T13:25:28.431Z,99485.53
2023-03-28T13:28:00.963Z,99484.72
2023-03-28T13:30:32.790Z,99484.06
2023-03-28T13:33:25.486Z,99486.63
2023-03-28T13:35:59.303Z,99474.78
2023-03-28T13:38:29.786Z,99477.53
2023-03-28T13:41:02.073Z,99480.63
2023-03-28T13:43:36.008Z,99476.81
2023-03-28T13:46:40.964Z,99478.81
2023-03-28T13:49:34.284Z,99485.66
2023-03-28T13:52:22.106Z,99508.31
2023-03-28T13:54:54.442Z,99524.66
2023-03-28T13:57:26.696Z,99534.09
2023-03-28T14:00:05.108Z,99537.16
2023-03-28T14:02:47.427Z,99539.63
2023-03-28T14:05:30.491Z,99541.75
2023-03-28T14:08:16.258Z,99524.13
2023-03-28T14:10:46.108Z,99544.66
2023-03-28T14:13:23.465Z,99538.69
2023-03-28T14:15:53.898Z,99536.13
2023-03-28T14:18:37.795Z,99533.47
2023-03-28T14:21:07.674Z,99536.78
2023-03-28T14:23:48.163Z,99535.38
2023-03-28T14:26:20.360Z,99542.22
2023-03-28T14:28:47.805Z,99532.63
2023-03-28T14:31:38.668Z,99544.00
2023-03-28T14:34:30.811Z,99542.00
2023-03-28T14:37:14.612Z,99532.22
2023-03-28T14:39:42.418Z,99535.47
2023-03-28T14:42:21.242Z,99528.38
2023-03-28T14:44:54.263Z,99535.31
2023-03-28T14:47:33.581Z,99536.38
2023-03-28T14:50:02.466Z,99544.38
2023-03-28T14:52:41.175Z,99545.03
2023-03-28T14:55:19.795Z,99541.16
2023-03-28T14:57:52.792Z,99546.34
2023-03-28T15:00:34.985Z,99548.75
2023-03-28T15:03:08.736Z,99543.06
2023-03-28T15:05:38.215Z,99554.31
2023-03-28T15:08:16.419Z,99546.69
2023-03-28T15:10:53.145Z,99541.66
2023-03-28T15:13:45.876Z,99543.50
2023-03-28T15:17:29.778Z,99538.75
2023-03-28T15:20:00.014Z,99537.94
2023-03-28T15:22:38.350Z,99544.34
2023-03-28T15:25:59.470Z,99551.34
2023-03-28T15:28:28.837Z,99562.75
2023-03-28T15:31:02.362Z,99560.94
2023-03-28T15:33:34.414Z,99581.72
2023-03-28T15:36:16.236Z,99581.16
2023-03-28T15:38:48.587Z,99581.56
2023-03-28T15:41:24.549Z,99593.16
2023-03-28T15:43:55.313Z,99595.72
2023-03-28T15:46:33.530Z,99599.50
2023-03-28T15:49:05.486Z,99613.34
2023-03-28T15:51:49.097Z,99605.72
2023-03-28T15:54:30.053Z,99605.69
2023-03-28T15:57:02.736Z,99608.75
2023-03-28T15:59:39.343Z,99608.50
2023-03-28T16:02:25.259Z,99608.16
2023-03-28T16:05:15.302Z,99607.06
2023-03-28T16:07:51.466Z,99614.22
2023-03-28T16:10:25.153Z,99612.09
2023-03-28T16:13:18.724Z,99623.38
2023-03-28T16:16:06.560Z,99636.19
2023-03-28T16:18:46.921Z,99632.31
2023-03-28T16:21:19.739Z,99651.28
2023-03-28T16:23:47.846Z,99673.91
2023-03-28T16:26:16.090Z,99676.84
2023-03-28T16:28:43.203Z,99672.91
2023-03-28T16:31:15.674Z,99676.34
2023-03-28T16:33:43.197Z,99668.97
2023-03-28T16:36:13.130Z,99663.50
2023-03-28T16:38:40.504Z,99669.44
2023-03-28T16:41:09.414Z,99681.44
2023-03-28T16:43:38.201Z,99678.31
2023-03-28T16:46:07.006Z,99677.84
2023-03-28T16:48:35.495Z,99693.31
2023-03-28T16:51:07.003Z,99693.00
2023-03-28T16:53:37.059Z,99701.53
2023-03-28T16:56:08.859Z,99709.94
2023-03-28T16:58:36.400Z,99713.69
2023-03-28T17:01:11.507Z,99712.72
2023-03-28T17:03:39.249Z,99723.91
2023-03-28T17:06:10.150Z,99720.41
2023-03-28T17:08:39.002Z,99731.78
2023-03-28T17:11:09.594Z,99748.44
2023-03-28T17:13:42.178Z,99755.22
2023-03-28T17:16:11.478Z,99750.22
2023-03-28T17:18:38.990Z,99764.06
2023-03-28T17:21:11.607Z,99760.81
2023-03-28T17:23:41.658Z,99762.13
2023-03-28T17:26:12.262Z,99775.31
2023-03-28T17:28:42.179Z,99775.97
2023-03-28T17:31:14.782Z,99772.38
2023-03-28T17:33:43.646Z,99777.34
2023-03-28T17:36:19.658Z,99781.94
2023-03-28T17:38:53.672Z,99790.16
2023-03-28T17:41:25.010Z,99794.78
2023-03-28T17:43:54.877Z,99803.00
2023-03-28T17:46:23.309Z,99813.34
2023-03-28T17:48:51.278Z,99823.06
2023-03-28T17:51:19.229Z,99830.59
2023-03-28T17:53:47.724Z,99831.75
2023-03-28T17:56:17.153Z,99837.19
2023-03-28T17:58:45.019Z,99840.19
2023-03-28T18:01:17.596Z,99838.22
2023-03-28T18:03:46.082Z,99842.16
2023-03-28T18:06:42.722Z,99838.22
2023-03-28T18:09:10.211Z,99850.75
2023-03-28T18:11:39.597Z,99857.34
2023-03-28T18:14:08.679Z,99860.97
2023-03-28T18:16:38.865Z,99864.44
2023-03-28T18:19:06.914Z,99870.56
2023-03-28T18:21:35.587Z,99873.50
2023-03-28T18:24:03.069Z,99882.78
2023-03-28T18:26:31.638Z,99878.78
2023-03-28T18:28:59.130Z,99888.66
2023-03-28T18:31:28.454Z,99890.31
2023-03-28T18:33:57.295Z,99900.56
2023-03-28T18:36:26.869Z,99898.91
2023-03-28T18:38:56.309Z,99900.03
2023-03-28T18:41:25.539Z,99898.66
2023-03-28T18:43:53.182Z,99909.97
2023-03-28T18:46:21.442Z,99907.25
2023-03-28T18:48:48.864Z,99914.19
2023-03-28T18:51:17.377Z,99906.59
2023-03-28T18:53:44.811Z,99913.22
2023-03-28T18:56:13.873Z,99913.28
2023-03-28T18:58:41.481Z,99914.63
2023-03-28T19:01:11.534Z,99920.69
2023-03-28T19:03:43.611Z,99926.06
2023-03-28T19:06:15.361Z,99927.06
2023-03-28T19:08:44.814Z,99932.34
2023-03-28T19:11:16.849Z,99928.69
2023-03-28T19:13:44.219Z,99930.59
2023-03-28T19:16:15.941Z,99932.50
2023-03-28T19:18:46.916Z,99938.16
2023-03-28T19:21:16.987Z,99939.34
2023-03-28T19:23:47.054Z,99946.13
2023-03-28T19:26:15.704Z,99946.75
2023-03-28T19:28:43.306Z,99938.47
2023-03-28T19:31:13.804Z,99945.06
2023-03-28T19:33:42.178Z,99951.84
2023-03-28T19:36:11.263Z,99949.75
2023-03-28T19:38:39.706Z,99945.00
2023-03-28T19:41:18.263Z,99956.06
2023-03-28T19:43:47.954Z,99948.81
2023-03-28T19:46:23.885Z,99947.78
2023-03-28T19:48:53.306Z,99943.66
2023-03-28T19:51:21.210Z,99952.81
2023-03-28T19:53:49.016Z,99953.16
2023-03-28T19:56:19.061Z,99950.66
2023-03-28T19:58:47.015Z,99949.00
2023-03-28T20:01:16.189Z,99947.03
2023-03-28T20:03:43.691Z,99942.28
2023-03-28T20:06:15.385Z,99945.06
2023-03-28T20:08:42.812Z,99953.66
2023-03-28T20:11:14.321Z,99952.00
2023-03-28T20:13:42.051Z,99944.25
2023-03-28T20:16:12.160Z,99952.00
2023-03-28T20:18:40.219Z,99946.41
2023-03-28T20:21:14.005Z,99941.84
2023-03-28T20:23:41.699Z,99941.84
2023-03-28T20:26:27.632Z,99945.44
2023-03-28T20:28:59.519Z,99944.47
2023-03-28T20:31:28.047Z,99941.69
2023-03-28T20:33:56.585Z,99939.06
2023-03-28T20:36:24.225Z,99942.53
2023-03-28T20:38:51.541Z,99947.78
2023-03-28T20:41:19.252Z,99950.41
2023-03-28T20:43:47.130Z,99945.75
2023-03-28T20:46:21.114Z,99946.75
2023-03-28T20:48:53.065Z,99952.16
2023-03-28T20:51:23.284Z,99946.75
2023-03-28T20:53:57.193Z,99950.34
2023-03-28T20:56:27.619Z,99951.19
2023-03-28T20:58:58.294Z,99952.00
2023-03-28T21:01:30.273Z,99956.59
2023-03-28T21:04:00.093Z,99956.53
2023-03-28T21:06:38.553Z,99956.38
2023-03-28T21:09:09.998Z,99956.09
2023-03-28T21:11:39.581Z,99963.59
2023-03-28T21:14:09.603Z,99956.25
2023-03-28T21:16:37.887Z,99963.91
2023-03-28T21:19:05.618Z,99962.09
2023-03-28T21:21:34.418Z,99968.53
2023-03-28T21:24:03.684Z,99965.06
2023-03-28T21:26:31.711Z,99972.16
2023-03-28T21:28:59.638Z,99972.16
2023-03-28T21:31:29.486Z,99973.81
2023-03-28T21:33:59.429Z,99976.72
2023-03-28T21:36:28.169Z,99983.56
2023-03-28T21:38:56.400Z,99981.63
2023-03-28T21:41:25.291Z,99984.94
2023-03-28T21:43:54.595Z,99992.84
2023-03-28T21:46:22.982Z,99985.50
2023-03-28T21:48:50.607Z,99990.53
2023-03-28T21:51:18.751Z,99985.28
2023-03-28T21:53:46.303Z,99984.16
2023-03-28T21:56:16.591Z,99988.31
2023-03-28T21:58:44.033Z,99991.94
2023-03-28T22:01:15.271Z,99988.47
2023-03-28T22:03:42.685Z,99985.34
2023-03-28T22:06:10.684Z,99986.97
2023-03-28T22:08:39.338Z,99986.69
2023-03-28T22:11:19.798Z,99978.13
2023-03-28T22:13:49.683Z,99974.50
2023-03-28T22:16:18.184Z,99979.47
2023-03-28T22:18:50.323Z,99984.72
2023-03-28T22:21:18.336Z,99990.00
2023-03-28T22:23:47.678Z,99993.91
2023-03-28T22:26:16.344Z,99995.19
2023-03-28T22:28:44.083Z,99990.88
2023-03-28T22:31:12.737Z,99991.16
2023-03-28T22:33:40.073Z,99990.09
2023-03-28T22:36:08.941Z,100003.53
2023-03-28T22:38:36.954Z,99995.25
2023-03-28T22:41:05.510Z,99995.41
2023-03-28T22:43:34.647Z,99998.47
2023-03-28T22:46:03.278Z,99994.72
2023-03-28T22:48:31.599Z,99998.19
2023-03-28T22:51:00.829Z,99999.81
2023-03-28T22:53:28.533Z,100005.38
2023-03-28T22:55:58.022Z,100002.06
2023-03-28T22:58:25.283Z,99993.47
2023-03-28T23:00:53.488Z,99996.84
2023-03-28T23:03:21.018Z,99998.78
2023-03-28T23:05:51.698Z,99997.53
2023-03-28T23:08:18.725Z,100005.16
2023-03-28T23:10:48.146Z,100004.19
2023-03-28T23:13:16.752Z,100009.06
2023-03-28T23:15:44.741Z,100012.06
2023-03-28T23:18:12.106Z,100016.13
2023-03-28T23:20:40.049Z,100009.88
2023-03-28T23:23:08.979Z,100012.50
2023-03-28T23:25:37.139Z,100008.53
2023-03-28T23:28:04.440Z,100019.19
2023-03-28T23:30:31.924Z,100014.88
2023-03-28T23:32:59.043Z,100022.91
2023-03-28T23:35:27.049Z,100017.94
2023-03-28T23:37:54.237Z,100030.09
2023-03-28T23:40:23.289Z,100032.03
2023-03-28T23:42:50.854Z,100032.88
2023-03-28T23:45:19.108Z,100033.75
2023-03-28T23:47:46.715Z,100025.72
2023-03-28T23:50:14.518Z,100032.34
2023-03-28T23:52:41.915Z,100033.03
2023-03-28T23:55:10.064Z,100029.03
2023-03-28T23:57:37.324Z,100035.41
